sensor_id;sensor_type;location;lat;lon;timestamp;pressure;altitude;pressure_sealevel;temperature;humidity
76128;BME280;64873;50.102;14.434;2023-06-10T00:01:19;99095.66;;;17.07;83.67
76128;BME280;64873;50.102;14.434;2023-06-10T00:03:44;99087.53;;;17.02;83.83
76128;BME280;64873;50.102;14.434;2023-06-10T00:06:09;99093.66;;;16.87;84.21
76128;BME280;64873;50.102;14.434;2023-06-10T00:08:35;99097.09;;;16.72;85.23
76128;BME280;64873;50.102;14.434;2023-06-10T00:11:02;99101.31;;;16.63;85.86
76128;BME280;64873;50.102;14.434;2023-06-10T00:13:28;99104.22;;;16.51;85.86
76128;BME280;64873;50.102;14.434;2023-06-10T00:15:53;99099.63;;;16.52;85.70
76128;BME280;64873;50.102;14.434;2023-06-10T00:18:19;99097.94;;;16.41;86.00
76128;BME280;64873;50.102;14.434;2023-06-10T00:20:46;99109.34;;;16.48;86.01
76128;BME280;64873;50.102;14.434;2023-06-10T00:23:14;99104.44;;;16.45;86.41
76128;BME280;64873;50.102;14.434;2023-06-10T00:25:39;99105.25;;;16.45;86.17
76128;BME280;64873;50.102;14.434;2023-06-10T00:28:05;99096.25;;;16.35;86.71
76128;BME280;64873;50.102;14.434;2023-06-10T00:30:30;99102.28;;;16.47;86.38
76128;BME280;64873;50.102;14.434;2023-06-10T00:32:56;99100.75;;;16.56;85.70
76128;BME280;64873;50.102;14.434;2023-06-10T00:35:21;99097.44;;;16.44;85.57
76128;BME280;64873;50.102;14.434;2023-06-10T00:37:47;99108.50;;;16.47;85.32
76128;BME280;64873;50.102;14.434;2023-06-10T00:40:12;99101.47;;;16.46;85.84
76128;BME280;64873;50.102;14.434;2023-06-10T00:42:38;99095.47;;;16.34;86.24
76128;BME280;64873;50.102;14.434;2023-06-10T00:45:04;99100.75;;;16.56;84.96
76128;BME280;64873;50.102;14.434;2023-06-10T00:47:30;99100.00;;;16.66;84.68
76128;BME280;64873;50.102;14.434;2023-06-10T00:49:56;99099.59;;;16.47;85.50
76128;BME280;64873;50.102;14.434;2023-06-10T00:52:25;99108.22;;;16.44;86.37
76128;BME280;64873;50.102;14.434;2023-06-10T00:54:52;99109.25;;;16.38;87.12
76128;BME280;64873;50.102;14.434;2023-06-10T00:57:18;99104.75;;;16.16;87.01
76128;BME280;64873;50.102;14.434;2023-06-10T00:59:47;99101.97;;;16.06;87.41
76128;BME280;64873;50.102;14.434;2023-06-10T01:02:13;99109.81;;;16.08;87.95
76128;BME280;64873;50.102;14.434;2023-06-10T01:04:38;99110.19;;;16.21;87.44
76128;BME280;64873;50.102;14.434;2023-06-10T01:07:33;99106.91;;;16.14;87.72
76128;BME280;64873;50.102;14.434;2023-06-10T01:10:11;99112.75;;;16.38;86.39
76128;BME280;64873;50.102;14.434;2023-06-10T01:12:49;99108.16;;;16.39;85.76
76128;BME280;64873;50.102;14.434;2023-06-10T01:15:16;99110.78;;;16.29;85.73
76128;BME280;64873;50.102;14.434;2023-06-10T01:17:56;99109.38;;;16.21;85.83
76128;BME280;64873;50.102;14.434;2023-06-10T01:20:23;99120.38;;;16.14;86.29
76128;BME280;64873;50.102;14.434;2023-06-10T01:22:49;99131.34;;;16.03;87.13
76128;BME280;64873;50.102;14.434;2023-06-10T01:25:16;99140.44;;;15.96;87.23
76128;BME280;64873;50.102;14.434;2023-06-10T01:27:46;99130.91;;;15.84;87.56
76128;BME280;64873;50.102;14.434;2023-06-10T01:30:18;99134.28;;;16.01;87.09
76128;BME280;64873;50.102;14.434;2023-06-10T01:32:50;99128.34;;;15.99;87.06
76128;BME280;64873;50.102;14.434;2023-06-10T01:35:17;99141.25;;;15.97;87.18
76128;BME280;64873;50.102;14.434;2023-06-10T01:37:46;99131.44;;;15.86;87.46
76128;BME280;64873;50.102;14.434;2023-06-10T01:40:13;99134.03;;;15.76;88.21
76128;BME280;64873;50.102;14.434;2023-06-10T01:42:39;99136.22;;;15.79;88.29
76128;BME280;64873;50.102;14.434;2023-06-10T01:45:05;99124.78;;;15.66;88.73
76128;BME280;64873;50.102;14.434;2023-06-10T01:47:31;99139.53;;;15.86;88.98
76128;BME280;64873;50.102;14.434;2023-06-10T01:49:56;99138.72;;;15.85;88.49
76128;BME280;64873;50.102;14.434;2023-06-10T01:52:22;99138.31;;;15.98;88.12
76128;BME280;64873;50.102;14.434;2023-06-10T01:54:47;99147.78;;;16.06;87.11
76128;BME280;64873;50.102;14.434;2023-06-10T01:57:13;99147.56;;;16.08;86.11
76128;BME280;64873;50.102;14.434;2023-06-10T01:59:38;99148.28;;;15.98;86.17
76128;BME280;64873;50.102;14.434;2023-06-10T02:02:05;99153.06;;;15.91;86.01
76128;BME280;64873;50.102;14.434;2023-06-10T02:04:30;99154.78;;;15.75;86.83
76128;BME280;64873;50.102;14.434;2023-06-10T02:06:56;99146.25;;;15.61;87.24
76128;BME280;64873;50.102;14.434;2023-06-10T02:09:21;99150.25;;;15.59;87.49
76128;BME280;64873;50.102;14.434;2023-06-10T02:11:48;99140.47;;;15.53;87.75
76128;BME280;64873;50.102;14.434;2023-06-10T02:14:14;99145.06;;;15.52;87.97
76128;BME280;64873;50.102;14.434;2023-06-10T02:16:40;99149.16;;;15.55;87.89
76128;BME280;64873;50.102;14.434;2023-06-10T02:19:05;99156.28;;;15.44;88.10
76128;BME280;64873;50.102;14.434;2023-06-10T02:21:31;99162.09;;;15.36;88.50
76128;BME280;64873;50.102;14.434;2023-06-10T02:23:57;99159.91;;;15.33;88.56
76128;BME280;64873;50.102;14.434;2023-06-10T02:26:22;99160.38;;;15.25;88.83
76128;BME280;64873;50.102;14.434;2023-06-10T02:28:48;99165.09;;;15.17;88.92
76128;BME280;64873;50.102;14.434;2023-06-10T02:31:14;99162.97;;;15.19;88.65
76128;BME280;64873;50.102;14.434;2023-06-10T02:33:39;99166.41;;;15.15;89.08
76128;BME280;64873;50.102;14.434;2023-06-10T02:36:05;99167.56;;;15.19;89.14
76128;BME280;64873;50.102;14.434;2023-06-10T02:38:31;99160.66;;;15.28;88.37
76128;BME280;64873;50.102;14.434;2023-06-10T02:40:56;99167.31;;;15.20;88.66
76128;BME280;64873;50.102;14.434;2023-06-10T02:43:22;99160.78;;;15.16;88.67
76128;BME280;64873;50.102;14.434;2023-06-10T02:45:47;99172.44;;;15.22;89.11
76128;BME280;64873;50.102;14.434;2023-06-10T02:48:12;99161.94;;;15.42;88.37
76128;BME280;64873;50.102;14.434;2023-06-10T02:50:38;99160.47;;;15.35;87.99
76128;BME280;64873;50.102;14.434;2023-06-10T02:53:05;99162.75;;;15.43;88.50
76128;BME280;64873;50.102;14.434;2023-06-10T02:55:31;99156.22;;;15.39;87.93
76128;BME280;64873;50.102;14.434;2023-06-10T02:57:57;99157.41;;;15.48;88.05
76128;BME280;64873;50.102;14.434;2023-06-10T03:00:23;99165.66;;;15.41;87.34
76128;BME280;64873;50.102;14.434;2023-06-10T03:02:48;99153.16;;;15.30;87.76
76128;BME280;64873;50.102;14.434;2023-06-10T03:05:14;99169.06;;;15.32;87.88
76128;BME280;64873;50.102;14.434;2023-06-10T03:07:39;99163.09;;;15.30;87.08
76128;BME280;64873;50.102;14.434;2023-06-10T03:10:06;99163.69;;;15.32;86.93
76128;BME280;64873;50.102;14.434;2023-06-10T03:12:32;99163.09;;;15.30;87.20
76128;BME280;64873;50.102;14.434;2023-06-10T03:14:57;99170.25;;;15.19;87.09
76128;BME280;64873;50.102;14.434;2023-06-10T03:17:23;99166.22;;;15.22;87.08
76128;BME280;64873;50.102;14.434;2023-06-10T03:19:48;99173.69;;;15.14;86.89
76128;BME280;64873;50.102;14.434;2023-06-10T03:22:16;99170.38;;;15.07;87.29
76128;BME280;64873;50.102;14.434;2023-06-10T03:24:41;99179.19;;;15.03;87.38
76128;BME280;64873;50.102;14.434;2023-06-10T03:27:12;99179.25;;;15.08;87.38
76128;BME280;64873;50.102;14.434;2023-06-10T03:29:39;99166.84;;;15.07;87.29
76128;BME280;64873;50.102;14.434;2023-06-10T03:32:05;99176.31;;;15.09;87.04
76128;BME280;64873;50.102;14.434;2023-06-10T03:34:31;99181.16;;;14.90;87.75
76128;BME280;64873;50.102;14.434;2023-06-10T03:36:56;99181.34;;;14.84;88.23
76128;BME280;64873;50.102;14.434;2023-06-10T03:39:22;99178.22;;;14.92;88.53
76128;BME280;64873;50.102;14.434;2023-06-10T03:41:49;99172.16;;;15.02;87.40
76128;BME280;64873;50.102;14.434;2023-06-10T03:44:15;99183.22;;;15.05;87.16
76128;BME280;64873;50.102;14.434;2023-06-10T03:46:41;99178.28;;;14.97;87.25
76128;BME280;64873;50.102;14.434;2023-06-10T03:49:06;99171.84;;;14.98;87.25
76128;BME280;64873;50.102;14.434;2023-06-10T03:51:32;99183.41;;;14.99;87.34
76128;BME280;64873;50.102;14.434;2023-06-10T03:53:57;99182.28;;;14.94;87.27
76128;BME280;64873;50.102;14.434;2023-06-10T03:56:23;99184.72;;;14.96;87.64
76128;BME280;64873;50.102;14.434;2023-06-10T03:58:49;99188.97;;;14.92;87.47
76128;BME280;64873;50.102;14.434;2023-06-10T04:01:14;99184.06;;;14.89;87.64
76128;BME280;64873;50.102;14.434;2023-06-10T04:03:40;99195.16;;;14.92;87.57
76128;BME280;64873;50.102;14.434;2023-06-10T04:06:07;99194.91;;;14.94;87.59
76128;BME280;64873;50.102;14.434;2023-06-10T04:08:32;99196.34;;;14.80;87.59
76128;BME280;64873;50.102;14.434;2023-06-10T04:10:58;99196.00;;;14.76;88.18
76128;BME280;64873;50.102;14.434;2023-06-10T04:13:24;99203.34;;;14.81;87.78
76128;BME280;64873;50.102;14.434;2023-06-10T04:15:49;99200.72;;;14.86;87.73
76128;BME280;64873;50.102;14.434;2023-06-10T04:18:15;99208.78;;;14.86;87.91
76128;BME280;64873;50.102;14.434;2023-06-10T04:20:41;99197.59;;;14.94;87.62
76128;BME280;64873;50.102;14.434;2023-06-10T04:23:06;99199.47;;;14.93;87.73
76128;BME280;64873;50.102;14.434;2023-06-10T04:25:32;99193.44;;;15.03;87.71
76128;BME280;64873;50.102;14.434;2023-06-10T04:27:57;99202.44;;;15.31;86.42
76128;BME280;64873;50.102;14.434;2023-06-10T04:30:23;99201.94;;;15.34;86.16
76128;BME280;64873;50.102;14.434;2023-06-10T04:32:48;99213.31;;;15.41;85.93
76128;BME280;64873;50.102;14.434;2023-06-10T04:35:15;99210.44;;;15.26;86.33
76128;BME280;64873;50.102;14.434;2023-06-10T04:37:41;99206.34;;;15.23;86.29
76128;BME280;64873;50.102;14.434;2023-06-10T04:40:07;99216.47;;;15.33;85.99
76128;BME280;64873;50.102;14.434;2023-06-10T04:42:33;99213.69;;;15.28;85.89
76128;BME280;64873;50.102;14.434;2023-06-10T04:45:00;99221.22;;;15.26;85.89
76128;BME280;64873;50.102;14.434;2023-06-10T04:47:26;99214.25;;;15.30;85.65
76128;BME280;64873;50.102;14.434;2023-06-10T04:49:52;99211.63;;;15.35;85.32
76128;BME280;64873;50.102;14.434;2023-06-10T04:52:17;99219.78;;;15.40;85.08
76128;BME280;64873;50.102;14.434;2023-06-10T04:54:43;99221.59;;;15.56;84.77
76128;BME280;64873;50.102;14.434;2023-06-10T04:57:09;99213.59;;;15.61;84.36
76128;BME280;64873;50.102;14.434;2023-06-10T04:59:37;99217.56;;;15.76;84.29
76128;BME280;64873;50.102;14.434;2023-06-10T05:02:06;99219.09;;;15.93;83.89
76128;BME280;64873;50.102;14.434;2023-06-10T05:04:31;99219.19;;;16.25;82.70
76128;BME280;64873;50.102;14.434;2023-06-10T05:06:57;99219.94;;;16.53;81.76
76128;BME280;64873;50.102;14.434;2023-06-10T05:09:22;99223.75;;;16.84;80.96
76128;BME280;64873;50.102;14.434;2023-06-10T05:11:48;99218.22;;;17.01;80.53
76128;BME280;64873;50.102;14.434;2023-06-10T05:14:13;99209.06;;;17.07;80.70
76128;BME280;64873;50.102;14.434;2023-06-10T05:16:39;99223.56;;;16.96;80.59
76128;BME280;64873;50.102;14.434;2023-06-10T05:19:05;99211.34;;;16.56;81.99
76128;BME280;64873;50.102;14.434;2023-06-10T05:21:30;99226.00;;;16.65;82.20
76128;BME280;64873;50.102;14.434;2023-06-10T05:23:56;99216.78;;;16.61;82.33
76128;BME280;64873;50.102;14.434;2023-06-10T05:26:21;99219.09;;;16.74;81.89
76128;BME280;64873;50.102;14.434;2023-06-10T05:28:47;99222.94;;;16.84;81.46
76128;BME280;64873;50.102;14.434;2023-06-10T05:31:12;99231.09;;;16.94;81.10
76128;BME280;64873;50.102;14.434;2023-06-10T05:33:38;99228.78;;;17.08;79.97
76128;BME280;64873;50.102;14.434;2023-06-10T05:36:04;99237.75;;;17.18;79.42
76128;BME280;64873;50.102;14.434;2023-06-10T05:38:30;99236.41;;;17.21;78.25
76128;BME280;64873;50.102;14.434;2023-06-10T05:40:55;99234.78;;;17.20;79.10
76128;BME280;64873;50.102;14.434;2023-06-10T05:43:22;99234.66;;;17.47;78.11
76128;BME280;64873;50.102;14.434;2023-06-10T05:45:47;99233.63;;;17.58;77.54
76128;BME280;64873;50.102;14.434;2023-06-10T05:48:13;99233.66;;;17.63;77.03
76128;BME280;64873;50.102;14.434;2023-06-10T05:50:39;99243.09;;;17.55;77.21
76128;BME280;64873;50.102;14.434;2023-06-10T05:53:07;99231.31;;;17.24;78.33
76128;BME280;64873;50.102;14.434;2023-06-10T05:55:41;99239.72;;;17.33;77.94
76128;BME280;64873;50.102;14.434;2023-06-10T05:58:06;99238.59;;;17.29;78.03
76128;BME280;64873;50.102;14.434;2023-06-10T06:00:31;99239.84;;;17.53;77.61
76128;BME280;64873;50.102;14.434;2023-06-10T06:02:57;99237.53;;;17.72;77.07
76128;BME280;64873;50.102;14.434;2023-06-10T06:05:24;99241.44;;;18.22;74.53
76128;BME280;64873;50.102;14.434;2023-06-10T06:07:49;99238.50;;;18.39;73.87
76128;BME280;64873;50.102;14.434;2023-06-10T06:10:16;99233.34;;;18.32;73.15
76128;BME280;64873;50.102;14.434;2023-06-10T06:12:42;99237.38;;;18.20;73.90
76128;BME280;64873;50.102;14.434;2023-06-10T06:15:08;99236.06;;;18.43;73.93
76128;BME280;64873;50.102;14.434;2023-06-10T06:17:33;99234.47;;;18.98;71.11
76128;BME280;64873;50.102;14.434;2023-06-10T06:19:59;99230.63;;;19.29;70.04
76128;BME280;64873;50.102;14.434;2023-06-10T06:22:24;99239.19;;;19.77;67.71
76128;BME280;64873;50.102;14.434;2023-06-10T06:24:50;99231.06;;;19.72;67.38
76128;BME280;64873;50.102;14.434;2023-06-10T06:27:16;99239.06;;;19.02;69.61
76128;BME280;64873;50.102;14.434;2023-06-10T06:29:41;99249.06;;;19.22;68.78
76128;BME280;64873;50.102;14.434;2023-06-10T06:32:07;99236.22;;;19.63;67.05
76128;BME280;64873;50.102;14.434;2023-06-10T06:34:32;99249.09;;;19.12;68.97
76128;BME280;64873;50.102;14.434;2023-06-10T06:36:58;99240.94;;;19.17;68.88
76128;BME280;64873;50.102;14.434;2023-06-10T06:39:24;99238.88;;;19.84;66.71
76128;BME280;64873;50.102;14.434;2023-06-10T06:41:49;99241.97;;;19.47;67.89
76128;BME280;64873;50.102;14.434;2023-06-10T06:44:14;99246.00;;;19.64;67.17
76128;BME280;64873;50.102;14.434;2023-06-10T06:46:40;99249.25;;;19.51;67.74
76128;BME280;64873;50.102;14.434;2023-06-10T06:49:05;99241.41;;;19.65;67.30
76128;BME280;64873;50.102;14.434;2023-06-10T06:51:31;99255.28;;;19.23;68.88
76128;BME280;64873;50.102;14.434;2023-06-10T06:53:57;99262.59;;;19.27;68.87
76128;BME280;64873;50.102;14.434;2023-06-10T06:56:24;99255.47;;;19.67;67.53
76128;BME280;64873;50.102;14.434;2023-06-10T06:58:50;99249.81;;;20.18;65.62
76128;BME280;64873;50.102;14.434;2023-06-10T07:01:15;99265.44;;;20.36;64.93
76128;BME280;64873;50.102;14.434;2023-06-10T07:03:41;99272.19;;;20.83;62.94
76128;BME280;64873;50.102;14.434;2023-06-10T07:06:06;99269.38;;;21.22;61.83
76128;BME280;64873;50.102;14.434;2023-06-10T07:08:32;99269.59;;;20.68;63.41
76128;BME280;64873;50.102;14.434;2023-06-10T07:10:57;99273.44;;;21.30;61.01
76128;BME280;64873;50.102;14.434;2023-06-10T07:13:23;99265.38;;;19.97;64.90
76128;BME280;64873;50.102;14.434;2023-06-10T07:15:48;99270.66;;;20.72;63.24
76128;BME280;64873;50.102;14.434;2023-06-10T07:18:15;99278.09;;;20.07;64.88
76128;BME280;64873;50.102;14.434;2023-06-10T07:20:42;99284.94;;;19.94;65.58
76128;BME280;64873;50.102;14.434;2023-06-10T07:23:07;99276.00;;;19.88;66.02
76128;BME280;64873;50.102;14.434;2023-06-10T07:25:32;99277.19;;;20.21;64.75
76128;BME280;64873;50.102;14.434;2023-06-10T07:27:58;99278.53;;;20.29;64.24
76128;BME280;64873;50.102;14.434;2023-06-10T07:30:23;99283.59;;;20.46;64.21
76128;BME280;64873;50.102;14.434;2023-06-10T07:32:49;99278.94;;;20.52;64.18
76128;BME280;64873;50.102;14.434;2023-06-10T07:35:14;99280.16;;;20.69;63.83
76128;BME280;64873;50.102;14.434;2023-06-10T07:37:39;99287.38;;;20.89;63.31
76128;BME280;64873;50.102;14.434;2023-06-10T07:40:05;99288.00;;;20.76;63.40
76128;BME280;64873;50.102;14.434;2023-06-10T07:42:35;99283.72;;;20.15;65.05
76128;BME280;64873;50.102;14.434;2023-06-10T07:45:02;99285.22;;;19.87;65.86
76128;BME280;64873;50.102;14.434;2023-06-10T07:47:27;99279.72;;;20.57;64.22
76128;BME280;64873;50.102;14.434;2023-06-10T07:49:53;99292.25;;;20.53;64.65
76128;BME280;64873;50.102;14.434;2023-06-10T07:52:18;99295.16;;;20.12;65.91
76128;BME280;64873;50.102;14.434;2023-06-10T07:54:44;99291.63;;;20.12;66.27
76128;BME280;64873;50.102;14.434;2023-06-10T07:57:09;99306.38;;;19.85;66.49
76128;BME280;64873;50.102;14.434;2023-06-10T07:59:35;99293.91;;;19.84;66.90
76128;BME280;64873;50.102;14.434;2023-06-10T08:02:00;99296.09;;;19.82;67.10
76128;BME280;64873;50.102;14.434;2023-06-10T08:04:26;99289.50;;;19.98;66.37
76128;BME280;64873;50.102;14.434;2023-06-10T08:06:51;99299.66;;;19.78;66.97
76128;BME280;64873;50.102;14.434;2023-06-10T08:09:17;99298.78;;;19.87;67.19
76128;BME280;64873;50.102;14.434;2023-06-10T08:11:43;99296.59;;;19.94;67.29
76128;BME280;64873;50.102;14.434;2023-06-10T08:14:09;99309.84;;;20.06;67.23
76128;BME280;64873;50.102;14.434;2023-06-10T08:16:34;99310.06;;;20.15;66.84
76128;BME280;64873;50.102;14.434;2023-06-10T08:19:00;99302.25;;;20.03;67.26
76128;BME280;64873;50.102;14.434;2023-06-10T08:21:25;99302.31;;;20.47;65.34
76128;BME280;64873;50.102;14.434;2023-06-10T08:23:54;99323.63;;;20.15;66.29
76128;BME280;64873;50.102;14.434;2023-06-10T08:26:20;99315.28;;;20.01;67.33
76128;BME280;64873;50.102;14.434;2023-06-10T08:28:45;99324.22;;;20.07;67.01
76128;BME280;64873;50.102;14.434;2023-06-10T08:31:11;99316.22;;;20.80;64.85
76128;BME280;64873;50.102;14.434;2023-06-10T08:33:36;99318.97;;;20.26;66.22
76128;BME280;64873;50.102;14.434;2023-06-10T08:36:02;99322.28;;;20.12;67.11
76128;BME280;64873;50.102;14.434;2023-06-10T08:38:27;99324.50;;;20.65;64.97
76128;BME280;64873;50.102;14.434;2023-06-10T08:40:56;99324.75;;;21.02;63.95
76128;BME280;64873;50.102;14.434;2023-06-10T08:43:34;99324.31;;;20.41;65.79
76128;BME280;64873;50.102;14.434;2023-06-10T08:46:03;99327.50;;;20.97;63.88
76128;BME280;64873;50.102;14.434;2023-06-10T08:48:30;99326.59;;;20.73;64.17
76128;BME280;64873;50.102;14.434;2023-06-10T08:50:57;99325.78;;;20.72;64.42
76128;BME280;64873;50.102;14.434;2023-06-10T08:53:24;99322.66;;;20.94;63.44
76128;BME280;64873;50.102;14.434;2023-06-10T08:55:51;99315.78;;;21.02;64.17
76128;BME280;64873;50.102;14.434;2023-06-10T08:58:17;99314.38;;;21.04;64.64
76128;BME280;64873;50.102;14.434;2023-06-10T09:00:46;99324.59;;;21.23;64.15
76128;BME280;64873;50.102;14.434;2023-06-10T09:03:11;99317.28;;;21.18;64.22
76128;BME280;64873;50.102;14.434;2023-06-10T09:05:37;99317.69;;;21.36;63.37
76128;BME280;64873;50.102;14.434;2023-06-10T09:08:03;99321.88;;;21.23;63.41
76128;BME280;64873;50.102;14.434;2023-06-10T09:10:29;99315.59;;;21.22;63.79
76128;BME280;64873;50.102;14.434;2023-06-10T09:12:54;99323.25;;;20.81;65.68
76128;BME280;64873;50.102;14.434;2023-06-10T09:15:20;99314.09;;;21.11;64.69
76128;BME280;64873;50.102;14.434;2023-06-10T09:17:46;99318.56;;;21.26;64.43
76128;BME280;64873;50.102;14.434;2023-06-10T09:20:11;99320.97;;;21.27;64.39
76128;BME280;64873;50.102;14.434;2023-06-10T09:22:37;99324.31;;;21.53;63.15
76128;BME280;64873;50.102;14.434;2023-06-10T09:25:07;99334.94;;;21.50;63.48
76128;BME280;64873;50.102;14.434;2023-06-10T09:27:50;99325.03;;;21.35;63.43
76128;BME280;64873;50.102;14.434;2023-06-10T09:30:32;99335.75;;;21.16;63.56
76128;BME280;64873;50.102;14.434;2023-06-10T09:33:01;99321.03;;;20.93;63.89
76128;BME280;64873;50.102;14.434;2023-06-10T09:35:28;99334.00;;;20.57;64.46
76128;BME280;64873;50.102;14.434;2023-06-10T09:37:59;99326.47;;;20.49;64.71
76128;BME280;64873;50.102;14.434;2023-06-10T09:40:25;99337.50;;;20.63;64.74
76128;BME280;64873;50.102;14.434;2023-06-10T09:42:55;99338.78;;;21.15;62.81
76128;BME280;64873;50.102;14.434;2023-06-10T09:45:22;99335.84;;;20.72;64.19
76128;BME280;64873;50.102;14.434;2023-06-10T09:47:51;99337.81;;;21.00;63.52
76128;BME280;64873;50.102;14.434;2023-06-10T09:50:17;99339.72;;;20.61;64.56
76128;BME280;64873;50.102;14.434;2023-06-10T09:52:43;99339.81;;;20.40;66.24
76128;BME280;64873;50.102;14.434;2023-06-10T09:55:10;99339.22;;;20.43;66.71
76128;BME280;64873;50.102;14.434;2023-06-10T09:57:36;99337.69;;;20.22;67.12
76128;BME280;64873;50.102;14.434;2023-06-10T10:00:06;99338.97;;;20.40;66.55
76128;BME280;64873;50.102;14.434;2023-06-10T10:02:44;99336.44;;;20.64;66.19
76128;BME280;64873;50.102;14.434;2023-06-10T10:05:10;99343.13;;;20.82;66.08
76128;BME280;64873;50.102;14.434;2023-06-10T10:07:35;99330.75;;;20.99;65.04
76128;BME280;64873;50.102;14.434;2023-06-10T10:10:01;99337.44;;;21.12;62.88
76128;BME280;64873;50.102;14.434;2023-06-10T10:12:27;99332.78;;;21.18;63.56
76128;BME280;64873;50.102;14.434;2023-06-10T10:14:54;99334.34;;;21.29;62.83
76128;BME280;64873;50.102;14.434;2023-06-10T10:17:21;99336.78;;;21.25;62.63
76128;BME280;64873;50.102;14.434;2023-06-10T10:19:53;99335.28;;;21.43;62.17
76128;BME280;64873;50.102;14.434;2023-06-10T10:22:33;99321.00;;;21.56;61.79
76128;BME280;64873;50.102;14.434;2023-06-10T10:25:02;99321.81;;;21.81;61.43
76128;BME280;64873;50.102;14.434;2023-06-10T10:27:36;99326.44;;;22.04;60.40
76128;BME280;64873;50.102;14.434;2023-06-10T10:30:07;99324.75;;;22.32;60.30
76128;BME280;64873;50.102;14.434;2023-06-10T10:32:40;99322.75;;;21.95;61.08
76128;BME280;64873;50.102;14.434;2023-06-10T10:35:12;99318.28;;;22.04;60.78
76128;BME280;64873;50.102;14.434;2023-06-10T10:37:41;99315.75;;;21.89;59.21
76128;BME280;64873;50.102;14.434;2023-06-10T10:40:08;99317.97;;;21.87;58.56
76128;BME280;64873;50.102;14.434;2023-06-10T10:42:34;99315.75;;;21.89;59.10
76128;BME280;64873;50.102;14.434;2023-06-10T10:45:01;99309.81;;;21.87;58.80
76128;BME280;64873;50.102;14.434;2023-06-10T10:47:27;99312.53;;;21.87;58.31
76128;BME280;64873;50.102;14.434;2023-06-10T10:49:56;99310.56;;;22.17;57.90
76128;BME280;64873;50.102;14.434;2023-06-10T10:52:26;99299.69;;;22.54;57.13
76128;BME280;64873;50.102;14.434;2023-06-10T10:54:53;99299.53;;;22.65;56.75
76128;BME280;64873;50.102;14.434;2023-06-10T10:57:23;99297.84;;;22.50;56.73
76128;BME280;64873;50.102;14.434;2023-06-10T11:05:04;99302.53;;;22.63;58.00
76128;BME280;64873;50.102;14.434;2023-06-10T11:07:34;99294.66;;;22.61;57.96
76128;BME280;64873;50.102;14.434;2023-06-10T11:10:06;99285.59;;;22.85;57.90
76128;BME280;64873;50.102;14.434;2023-06-10T11:15:09;99286.81;;;23.58;54.99
76128;BME280;64873;50.102;14.434;2023-06-10T11:17:35;99274.75;;;23.45;54.77
76128;BME280;64873;50.102;14.434;2023-06-10T11:20:06;99277.94;;;23.20;54.48
76128;BME280;64873;50.102;14.434;2023-06-10T11:22:32;99282.06;;;22.84;56.16
76128;BME280;64873;50.102;14.434;2023-06-10T11:24:58;99271.50;;;22.64;56.55
76128;BME280;64873;50.102;14.434;2023-06-10T11:27:24;99280.53;;;22.59;57.08
76128;BME280;64873;50.102;14.434;2023-06-10T11:32:51;99292.91;;;22.33;57.83
76128;BME280;64873;50.102;14.434;2023-06-10T11:35:20;99294.13;;;22.22;58.02
76128;BME280;64873;50.102;14.434;2023-06-10T11:37:47;99285.53;;;22.15;58.52
76128;BME280;64873;50.102;14.434;2023-06-10T11:40:12;99277.16;;;22.30;58.32
76128;BME280;64873;50.102;14.434;2023-06-10T11:42:42;99280.28;;;22.75;57.61
76128;BME280;64873;50.102;14.434;2023-06-10T11:45:08;99265.97;;;22.88;57.19
76128;BME280;64873;50.102;14.434;2023-06-10T11:47:33;99272.34;;;22.78;57.40
76128;BME280;64873;50.102;14.434;2023-06-10T11:49:59;99267.41;;;22.99;57.13
76128;BME280;64873;50.102;14.434;2023-06-10T11:52:29;99257.56;;;22.66;58.14
76128;BME280;64873;50.102;14.434;2023-06-10T11:54:56;99261.88;;;23.04;56.52
76128;BME280;64873;50.102;14.434;2023-06-10T11:57:21;99259.91;;;22.72;57.56
76128;BME280;64873;50.102;14.434;2023-06-10T11:59:47;99254.44;;;23.37;55.56
76128;BME280;64873;50.102;14.434;2023-06-10T12:02:16;99260.28;;;23.31;54.50
76128;BME280;64873;50.102;14.434;2023-06-10T12:04:42;99249.47;;;23.26;54.62
76128;BME280;64873;50.102;14.434;2023-06-10T12:07:07;99241.94;;;22.90;55.00
76128;BME280;64873;50.102;14.434;2023-06-10T12:09:33;99252.34;;;22.69;56.00
76128;BME280;64873;50.102;14.434;2023-06-10T12:12:00;99243.44;;;22.64;56.44
76128;BME280;64873;50.102;14.434;2023-06-10T12:17:19;99241.06;;;22.76;56.00
76128;BME280;64873;50.102;14.434;2023-06-10T12:19:46;99241.94;;;22.90;54.94
76128;BME280;64873;50.102;14.434;2023-06-10T12:22:13;99241.47;;;23.15;54.80
76128;BME280;64873;50.102;14.434;2023-06-10T12:27:27;99236.97;;;23.52;52.24
76128;BME280;64873;50.102;14.434;2023-06-10T12:29:55;99236.06;;;23.57;51.91
76128;BME280;64873;50.102;14.434;2023-06-10T12:32:44;99233.63;;;23.97;50.88
76128;BME280;64873;50.102;14.434;2023-06-10T12:35:16;99233.34;;;23.98;51.48
76128;BME280;64873;50.102;14.434;2023-06-10T12:37:54;99233.16;;;23.81;51.31
76128;BME280;64873;50.102;14.434;2023-06-10T12:40:32;99212.03;;;23.73;50.57
76128;BME280;64873;50.102;14.434;2023-06-10T12:42:59;99218.13;;;23.70;50.61
76128;BME280;64873;50.102;14.434;2023-06-10T12:45:33;99218.38;;;23.96;50.46
76128;BME280;64873;50.102;14.434;2023-06-10T12:50:39;99208.78;;;24.20;50.50
76128;BME280;64873;50.102;14.434;2023-06-10T12:53:05;99192.38;;;23.98;49.85
76128;BME280;64873;50.102;14.434;2023-06-10T12:55:31;99190.38;;;24.26;49.42
76128;BME280;64873;50.102;14.434;2023-06-10T12:57:57;99182.16;;;24.40;49.28
76128;BME280;64873;50.102;14.434;2023-06-10T13:00:23;99195.50;;;24.64;48.52
76128;BME280;64873;50.102;14.434;2023-06-10T13:02:52;99187.44;;;24.90;47.66
76128;BME280;64873;50.102;14.434;2023-06-10T13:05:18;99187.44;;;24.90;47.50
76128;BME280;64873;50.102;14.434;2023-06-10T13:07:44;99177.66;;;24.66;48.91